Latest Weather Observations for Liawenee

IDT60801

Issued at 3:01 pm EST Tuesday 29 September 2020 (issued every 10 minutes, with the page automatically refreshed every 10 minutes)

About weather observations | Map of weather stations | Latest weather observations for TAS | Other Formats
Station Details ID: 096033 Name: LIAWENEE Lat: -41.90 Lon: 146.67 Height: 1057.0 m
Data from the previous 72 hours. | See also: Recent months at Liawenee
Date/Time
EST
Temp
°C
App
Temp
°C
Dew
Point
°C
Rel
Hum
%
Delta-T
°C
Wind Press
QNH
hPa
Press
MSL
hPa
Rain since
9am
mm
Dir  Spd
km/h
Gust
km/h
Spd
kts
Gust
kts
29/03:00pm 7.2 - - - - NNE 19 30 10 16 1019.3 1020.7 0.0
29/02:30pm 7.5 - - - - N 15 24 8 13 1019.5 1020.9 0.0
29/02:00pm 7.5 - - - - NNE 17 26 9 14 1019.8 1021.2 0.0
29/01:30pm 7.8 - - - - NNW 15 24 8 13 1020.2 1021.6 0.0
29/01:00pm 7.2 - - - - N 17 30 9 16 1020.8 1022.3 0.0
29/12:30pm 7.2 - - - - N 13 20 7 11 1021.4 1022.8 0.0
29/12:00pm 6.5 - - - - NNW 15 24 8 13 1022.2 1023.6 0.0
29/11:30am 7.0 - - - - N 17 26 9 14 1022.3 1023.7 0.0
29/11:00am 6.7 - - - - NNW 13 24 7 13 1022.5 1024.0 0.0
29/10:30am 6.9 - - - - NNW 17 26 9 14 1022.9 1024.4 0.0
29/10:00am 7.8 - - - - NNE 13 20 7 11 1022.6 1024.1 0.0
29/09:30am 7.1 - - - - NNE 11 20 6 11 1023.1 1024.5 0.0
29/09:00am 6.5 - - - - E 6 11 3 6 1023.3 1024.8 0.0
29/08:30am 5.1 - - - - SW 7 11 4 6 1023.5 1025.0 0.0
29/08:00am 4.6 - - - - SE 6 11 3 6 1023.5 1025.0 0.0
29/07:30am 1.5 - - - - SSW 6 9 3 5 1023.5 1025.0 0.0
29/07:00am -0.1 - - - - WNW 7 9 4 5 1022.9 1024.4 0.0
29/06:30am -2.5 - - - - CALM 0 0 0 0 1022.7 1024.2 0.0
29/06:00am -3.6 - - - - WNW 4 7 2 4 1022.8 1024.3 0.0
29/05:30am -3.7 - - - - NE 6 9 3 5 1022.8 1024.3 0.0
29/05:00am -4.0 - - - - CALM 0 0 0 0 1022.9 1024.4 0.0
29/04:30am -3.6 - - - - CALM 0 4 0 2 1022.9 1024.4 0.0
29/04:00am -2.6 - - - - W 7 11 4 6 1022.9 1024.4 0.0
29/03:30am -3.3 - - - - WNW 4 7 2 4 1022.9 1024.4 0.0
29/03:00am -3.7 - - - - W 4 7 2 4 1023.2 1024.7 0.0
29/02:30am -3.4 - - - - NE 6 9 3 5 1023.5 1025.0 0.0
29/02:00am -3.8 - - - - CALM 0 0 0 0 1023.8 1025.3 0.0
29/01:30am -3.3 - - - - WNW 2 7 1 4 1023.9 1025.5 0.0
29/01:00am -3.6 - - - - CALM 0 0 0 0 1024.2 1025.7 0.0
29/12:30am -2.8 - - - - CALM 0 6 0 3 1024.3 1025.8 0.0
29/12:00am -3.7 - - - - CALM 0 0 0 0 1024.5 1026.0 0.0
 
Date/Time
EST
Temp
°C
App
Temp
°C
Dew
Point
°C
Rel
Hum
%
Delta-T
°C
Wind Press
QNH
hPa
Press
MSL
hPa
Rain since
9am
mm
Dir  Spd
km/h
Gust
km/h
Spd
kts
Gust
kts
28/11:30pm -3.0 - - - - CALM 0 0 0 0 1024.5 1026.0 0.0
28/11:00pm -1.9 - - - - NW 2 6 1 3 1024.6 1026.1 0.0
28/10:30pm -1.1 - - - - NW 6 7 3 4 1024.9 1026.5 0.0
28/10:00pm -0.5 - - - - W 2 9 1 5 1025.0 1026.6 0.0
28/09:30pm -1.0 - - - - WNW 6 7 3 4 1025.3 1026.8 0.0
28/09:00pm -0.4 - - - - W 7 9 4 5 1025.3 1026.8 0.0
28/08:30pm -0.4 - - - - W 7 9 4 5 1025.4 1026.9 0.0
28/08:00pm 0.3 - - - - W 6 7 3 4 1025.0 1026.6 0.0
28/07:30pm 0.4 - - - - WSW 6 9 3 5 1025.0 1026.6 0.0
28/07:00pm 0.9 - - - - SW 6 7 3 4 1024.8 1026.4 0.0
28/06:30pm 1.8 - - - - S 6 7 3 4 1024.5 1026.0 0.0
28/06:00pm 4.7 - - - - SSW 13 17 7 9 1024.3 1025.8 0.0
28/05:30pm 6.3 - - - - SSW 17 20 9 11 1024.1 1025.6 0.0
28/05:00pm 7.0 - - - - SSW 15 20 8 11 1023.9 1025.5 0.0
28/04:30pm 7.9 - - - - SW 19 28 10 15 1023.7 1025.2 0.0
28/04:00pm 8.1 - - - - SSW 22 28 12 15 1023.4 1024.9 0.0
28/03:30pm 8.3 - - - - SSW 20 28 11 15 1023.5 1025.0 0.0
28/03:00pm 8.7 - - - - SSW 24 32 13 17 1023.5 1025.0 0.0
28/02:30pm 8.5 - - - - SW 24 33 13 18 1023.4 1024.9 0.0
28/02:00pm 9.2 - - - - SW 24 32 13 17 1023.6 1025.1 0.0
28/01:30pm 8.2 - - - - SW 22 35 12 19 1023.7 1025.2 0.0
28/01:00pm 7.5 - - - - SSW 26 41 14 22 1023.6 1025.1 0.0
28/12:30pm 8.3 - - - - SSW 28 35 15 19 1023.5 1025.0 0.0
28/12:00pm 7.1 - - - - SSW 17 30 9 16 1023.9 1025.5 0.0
28/11:30am 7.1 - - - - SW 26 37 14 20 1023.7 1025.2 0.0
28/11:00am 5.7 - - - - SSW 20 32 11 17 1024.3 1025.8 0.0
28/10:30am 6.0 - - - - SSW 24 33 13 18 1024.1 1025.6 0.0
28/10:00am 4.5 - - - - SW 26 37 14 20 1024.2 1025.7 0.0
28/09:30am 3.7 - - - - SW 32 39 17 21 1023.9 1025.5 0.0
28/09:00am 3.3 - - - - SW 32 43 17 23 1023.7 1025.2 0.0
28/08:30am 2.6 - - - - SW 30 39 16 21 1023.7 1025.2 0.0
28/08:00am 1.9 - - - - SW 26 32 14 17 1023.6 1025.1 0.0
28/07:30am 1.2 - - - - WSW 32 39 17 21 1023.4 1024.9 0.0
28/07:00am 0.9 - - - - SW 24 30 13 16 1023.1 1024.5 0.0
28/06:30am 0.4 - - - - SW 22 35 12 19 1022.8 1024.3 0.0
28/06:00am 0.3 - - - - SW 28 35 15 19 1022.2 1023.6 0.0
28/05:30am 0.2 - - - - SW 28 35 15 19 1021.9 1023.4 0.0
28/05:00am 0.2 - - - - SW 22 32 12 17 1021.9 1023.4 0.0
28/04:30am 0.1 - - - - SW 20 26 11 14 1021.8 1023.3 0.0
28/04:00am 0.0 - - - - WSW 24 30 13 16 1021.5 1023.0 0.0
28/03:30am 0.1 - - - - WSW 24 33 13 18 1021.6 1023.1 0.0
28/03:00am 0.0 - - - - SW 20 28 11 15 1021.7 1023.2 0.0
28/02:30am 0.0 - - - - WSW 26 35 14 19 1021.6 1023.1 0.0
28/02:00am -0.2 - - - - WSW 32 39 17 21 1021.5 1023.0 0.0
28/01:30am -0.1 - - - - SW 22 28 12 15 1021.7 1023.2 0.0
28/01:00am 0.2 - - - - WSW 22 32 12 17 1021.8 1023.3 0.0
28/12:30am 0.1 - - - - WSW 35 46 19 25 1021.6 1023.1 0.0
28/12:00am 0.1 - - - - SW 30 41 16 22 1021.6 1023.1 0.0
 
Date/Time
EST
Temp
°C
App
Temp
°C
Dew
Point
°C
Rel
Hum
%
Delta-T
°C
Wind Press
QNH
hPa
Press
MSL
hPa
Rain since
9am
mm
Dir  Spd
km/h
Gust
km/h
Spd
kts
Gust
kts
27/11:30pm 0.0 - - - - SW 20 28 11 15 1022.2 1023.6 0.0
27/11:00pm -0.1 - - - - WSW 19 26 10 14 1022.2 1023.6 0.0
27/10:30pm 0.2 - - - - SW 13 20 7 11 1022.2 1023.6 0.0
27/10:00pm 0.2 - - - - WSW 15 22 8 12 1022.5 1024.0 0.0
27/09:30pm 0.1 - - - - SW 17 24 9 13 1022.5 1024.0 0.0
27/09:00pm 0.0 - - - - WSW 22 30 12 16 1022.4 1023.9 0.0
27/08:30pm -0.2 - - - - WSW 28 35 15 19 1021.9 1023.4 0.0
27/08:00pm -0.4 - - - - WSW 24 32 13 17 1021.6 1023.1 0.0
27/07:30pm -0.2 - - - - WSW 24 33 13 18 1021.2 1022.6 0.0
27/07:00pm 0.6 - - - - SW 26 39 14 21 1021.2 1022.6 0.0
27/06:30pm 0.4 - - - - WSW 28 37 15 20 1020.7 1022.2 0.0
27/06:00pm 1.3 - - - - WSW 28 35 15 19 1020.4 1021.8 0.0
27/05:30pm 2.6 - - - - WSW 30 43 16 23 1020.0 1021.4 0.0
27/05:00pm 2.3 - - - - WSW 35 46 19 25 1019.5 1020.9 0.0
27/04:30pm 3.0 - - - - WSW 35 48 19 26 1019.2 1020.6 0.0
27/04:00pm 4.5 - - - - WSW 35 44 19 24 1019.0 1020.3 0.0
27/03:30pm 4.5 - - - - SW 30 41 16 22 1019.1 1020.5 0.0
27/03:00pm 4.4 - - - - SW 28 37 15 20 1019.1 1020.5 0.0
27/02:30pm 4.6 - - - - WSW 33 41 18 22 1019.1 1020.5 0.0
27/02:00pm 4.3 - - - - SW 37 46 20 25 1018.4 1019.8 0.0
27/01:30pm 4.4 - - - - SW 37 48 20 26 1018.3 1019.7 0.0
27/01:00pm 4.4 - - - - SW 39 50 21 27 1018.5 1019.9 0.0
27/12:30pm 4.2 - - - - SW 33 43 18 23 1019.1 1020.5 0.0
27/12:14pm 3.9 - - - - SW 32 52 17 28 1018.7 1020.1 0.0
27/12:00pm 3.4 - - - - SW 30 41 16 22 1019.1 1020.5 0.0
27/11:30am 2.1 - - - - SW 26 39 14 21 1019.0 1020.3 0.0
27/11:12am 1.9 - - - - SW 32 50 17 27 1019.1 1020.5 0.0
27/11:00am 2.0 - - - - SW 33 48 18 26 1018.5 1019.9 0.0
27/10:30am 1.8 - - - - SW 37 50 20 27 1018.3 1019.7 0.0
27/10:00am 0.8 - - - - SW 33 44 18 24 1018.4 1019.8 0.0
27/09:30am 0.3 - - - - SW 24 35 13 19 1017.8 1019.2 0.0
27/09:00am 0.0 - - - - SW 32 43 17 23 1017.3 1018.6 1.2
27/08:30am -0.7 - - - - SW 35 57 19 31 1017.0 1018.3 1.2
27/08:11am -0.6 - - - - SW 32 50 17 27 1016.7 1018.1 1.2
27/08:00am -0.8 - - - - SW 32 41 17 22 1016.6 1018.0 1.0
27/07:33am -1.1 - - - - SW 32 50 17 27 1016.2 1017.5 1.0
27/07:30am -1.2 - - - - SW 33 50 18 27 1016.1 1017.4 1.0
27/07:09am -1.4 - - - - SW 35 54 19 29 1015.4 1016.7 1.0
27/07:00am -1.5 - - - - SW 35 48 19 26 1015.3 1016.6 1.0
27/06:44am -1.8 - - - - SW 32 50 17 27 1014.9 1016.1 1.0
27/06:30am -2.0 - - - - SW 33 43 18 23 1014.6 1015.9 1.0
27/06:00am -2.3 - - - - SW 35 52 19 28 1013.7 1015.0 1.0
27/05:57am -2.3 - - - - SW 33 52 18 28 1013.6 1014.9 1.0
27/05:30am -2.4 - - - - SW 39 50 21 27 1013.2 1014.4 1.0
27/05:00am -2.2 - - - - SW 32 44 17 24 1013.0 1014.2 1.0
27/04:30am -2.3 - - - - SW 33 44 18 24 1012.3 1013.5 1.0
27/04:00am -2.3 - - - - SW 32 43 17 23 1012.0 1013.2 1.0
27/03:30am -2.3 - - - - SW 35 56 19 30 1011.9 1013.1 1.0
27/03:28am -2.2 - - - - SW 35 56 19 30 1011.8 1013.0 1.0
27/03:00am -2.3 - - - - SSW 33 46 18 25 1011.2 1012.4 1.0
27/02:30am -2.3 - - - - SW 35 46 19 25 1010.9 1012.0 1.0
27/02:00am -2.5 - - - - SW 39 54 21 29 1010.6 1011.8 1.0
27/01:45am -2.7 - - - - SW 37 57 20 31 1010.5 1011.7 1.0
27/01:30am -2.6 - - - - SW 39 52 21 28 1010.4 1011.6 1.0
27/01:21am -2.5 - - - - SW 33 52 18 28 1010.4 1011.6 1.0
27/01:00am -2.4 - - - - SW 37 48 20 26 1010.2 1011.4 1.0
27/12:30am -2.8 - - - - SW 35 50 19 27 1009.8 1010.9 1.0
27/12:00am -3.1 - - - - SW 41 54 22 29 1009.2 1010.3 1.0
 
Date/Time
EST
Temp
°C
App
Temp
°C
Dew
Point
°C
Rel
Hum
%
Delta-T
°C
Wind Press
QNH
hPa
Press
MSL
hPa
Rain since
9am
mm
Dir  Spd
km/h
Gust
km/h
Spd
kts
Gust
kts
26/11:41pm -2.6 - - - - SW 39 57 21 31 1008.9 1010.0 1.0
26/11:30pm -2.8 - - - - SW 32 43 17 23 1008.9 1010.0 1.0
26/11:00pm -3.3 - - - - SW 35 52 19 28 1008.6 1009.8 1.0
26/10:30pm -2.5 - - - - SSW 32 44 17 24 1008.3 1009.4 1.0
26/10:00pm -2.6 - - - - SW 33 46 18 25 1007.8 1008.9 1.0
26/09:30pm -2.8 - - - - SSW 41 57 22 31 1007.7 1008.7 1.0
26/09:16pm -2.6 - - - - SSW 43 61 23 33 1007.7 1008.7 1.0
26/09:00pm -2.5 - - - - SSW 41 52 22 28 1007.3 1008.4 1.0
26/08:30pm -2.0 - - - - SW 35 54 19 29 1006.7 1007.7 1.0
26/08:13pm -2.1 - - - - SSW 33 52 18 28 1006.2 1007.3 0.8
26/08:00pm -1.8 - - - - SW 33 46 18 25 1005.9 1006.9 0.4
26/07:30pm -1.5 - - - - SW 39 54 21 29 1005.0 1006.0 0.4
26/07:04pm -1.5 - - - - SW 37 56 20 30 1004.8 1005.8 0.4
26/07:00pm -1.4 - - - - SW 39 50 21 27 1004.8 1005.8 0.4
26/06:46pm -1.2 - - - - SW 35 54 19 29 1004.5 1005.6 0.4
26/06:30pm -1.2 - - - - SW 32 44 17 24 1004.1 1005.1 0.4
26/06:07pm -0.8 - - - - SW 43 61 23 33 1003.1 1004.1 0.4
26/06:00pm -0.7 - - - - SW 43 57 23 31 1003.0 1004.0 0.4
26/05:38pm -0.2 - - - - SW 39 57 21 31 1002.6 1003.5 0.4
26/05:30pm 0.0 - - - - SW 35 50 19 27 1002.4 1003.4 0.4
26/05:17pm 0.0 - - - - SW 37 56 20 30 1002.4 1003.4 0.4
26/05:00pm -0.1 - - - - SW 32 44 17 24 1002.2 1003.2 0.2
26/04:42pm 0.5 - - - - SW 35 56 19 30 1001.9 1002.8 0.2
26/04:30pm 1.2 - - - - WSW 37 52 20 28 1001.9 1002.8 0.2
26/04:08pm 0.8 - - - - SW 32 52 17 28 1001.7 1002.6 0.2
26/04:00pm 1.4 - - - - SW 33 48 18 26 1001.8 1002.7 0.2
26/03:30pm 2.5 - - - - SW 35 48 19 26 1001.6 1002.5 0.0

Other formats

Comma delimited format used in spreadsheet applications
http://www.bom.gov.au/fwo/IDT60801/IDT60801.95959.axf

JavaScript Object Notation format (JSON) in row-major order
http://www.bom.gov.au/fwo/IDT60801/IDT60801.95959.json

Data quality

Most of these data are generated automatically and are frequently updated. Quality checks on data are not normally performed. It is possible for incorrect values to appear. Refer to information at About Latest Weather Observations and please check the disclaimer before using these data.